Time,TemperatureF,DewpointF,PressureIn,WindDirection,WindDirectionDegrees,WindSpeedMPH,WindSpeedGustMPH,Humidity,HourlyPrecipIn,Conditions,Clouds,dailyrainin,SoftwareType,DateUTC
2013-05-22 00:01:00,61.3,44.6,30.09,WSW,248,4.0,10.0,54,0.00,,,0.00,meteohub,2013-05-22 04:01:00,
2013-05-22 00:02:00,61.2,44.4,30.09,West,274,10.0,10.0,54,0.00,,,0.00,meteohub,2013-05-22 04:02:00,
2013-05-22 00:03:00,61.2,44.4,30.09,WSW,252,8.0,10.0,54,0.00,,,0.00,meteohub,2013-05-22 04:03:00,
2013-05-22 00:07:00,61.2,44.4,30.09,WSW,253,8.0,10.0,54,0.00,,,0.00,meteohub,2013-05-22 04:07:00,
2013-05-22 00:12:00,61.0,44.2,30.09,West,278,8.0,11.0,54,0.00,,,0.00,meteohub,2013-05-22 04:12:00,
2013-05-22 00:17:00,60.6,43.9,30.12,West,259,5.0,10.0,54,0.00,,,0.00,meteohub,2013-05-22 04:17:00,
2013-05-22 00:22:00,60.3,43.5,30.12,WSW,250,8.0,10.0,54,0.00,,,0.00,meteohub,2013-05-22 04:22:00,
2013-05-22 00:28:00,59.9,43.2,30.12,WSW,258,6.0,10.0,54,0.00,,,0.00,meteohub,2013-05-22 04:28:00,
2013-05-22 00:33:00,59.9,43.2,30.12,West,268,3.0,11.0,54,0.00,,,0.00,meteohub,2013-05-22 04:33:00,
2013-05-22 00:38:00,60.1,43.9,30.12,WSW,249,8.0,11.0,55,0.00,,,0.00,meteohub,2013-05-22 04:38:00,
2013-05-22 00:43:00,59.7,43.0,30.12,WNW,291,9.0,11.0,54,0.00,,,0.00,meteohub,2013-05-22 04:43:00,
2013-05-22 00:49:00,59.7,43.0,30.12,WSW,253,5.0,12.0,54,0.00,,,0.00,meteohub,2013-05-22 04:49:00,
2013-05-22 00:54:00,59.9,43.7,30.12,WNW,290,3.0,12.0,55,0.00,,,0.00,meteohub,2013-05-22 04:54:00,
2013-05-22 00:59:00,60.1,43.9,30.15,WNW,282,3.0,12.0,55,0.00,,,0.00,meteohub,2013-05-22 04:59:00,
2013-05-22 01:05:00,60.1,43.9,30.15,West,268,4.0,12.0,55,0.00,,,0.00,meteohub,2013-05-22 05:05:00,
2013-05-22 01:10:00,59.9,43.7,30.15,WNW,285,9.0,11.0,55,0.00,,,0.00,meteohub,2013-05-22 05:10:00,
2013-05-22 01:16:00,59.7,43.5,30.18,West,271,11.0,12.0,55,0.00,,,0.00,meteohub,2013-05-22 05:16:00,
2013-05-22 01:21:00,59.5,42.8,30.18,West,267,9.0,12.0,54,0.00,,,0.00,meteohub,2013-05-22 05:21:00,
2013-05-22 01:26:00,59.2,42.6,30.18,West,269,8.0,13.0,54,0.00,,,0.00,meteohub,2013-05-22 05:26:00,
2013-05-22 01:31:00,59.2,42.6,30.18,West,277,13.0,13.0,54,0.00,,,0.00,meteohub,2013-05-22 05:31:00,
2013-05-22 01:37:00,59.0,42.8,30.18,WNW,291,9.0,17.0,55,0.00,,,0.00,meteohub,2013-05-22 05:37:00,
2013-05-22 01:42:00,58.8,42.6,30.18,West,268,8.0,17.0,55,0.00,,,0.00,meteohub,2013-05-22 05:42:00,
2013-05-22 01:47:00,58.8,42.6,30.18,West,261,11.0,17.0,55,0.00,,,0.00,meteohub,2013-05-22 05:47:00,
2013-05-22 01:52:00,58.6,43.0,30.18,WSW,254,16.0,17.0,56,0.00,,,0.00,meteohub,2013-05-22 05:52:00,
2013-05-22 01:57:00,58.5,42.8,30.18,WSW,246,8.0,17.0,56,0.00,,,0.00,meteohub,2013-05-22 05:57:00,
2013-05-22 02:02:00,58.3,42.6,30.18,West,265,9.0,17.0,56,0.00,,,0.00,meteohub,2013-05-22 06:02:00,
2013-05-22 02:07:00,58.1,42.4,30.18,West,259,13.0,17.0,56,0.00,,,0.00,meteohub,2013-05-22 06:07:00,
2013-05-22 02:12:00,58.1,43.0,30.18,WSW,248,12.0,18.0,57,0.00,,,0.00,meteohub,2013-05-22 06:12:00,
2013-05-22 02:17:00,58.1,43.0,30.18,WSW,254,13.0,16.0,57,0.00,,,0.00,meteohub,2013-05-22 06:17:00,
2013-05-22 02:22:00,57.9,42.8,30.18,NW,305,10.0,16.0,57,0.00,,,0.00,meteohub,2013-05-22 06:22:00,
2013-05-22 02:27:00,57.9,43.2,30.18,West,275,17.0,17.0,58,0.00,,,0.00,meteohub,2013-05-22 06:27:00,
2013-05-22 02:32:00,57.7,43.5,30.18,WNW,291,11.0,16.0,59,0.00,,,0.00,meteohub,2013-05-22 06:32:00,
2013-05-22 02:37:00,57.7,43.9,30.18,West,276,15.0,16.0,60,0.00,,,0.00,meteohub,2013-05-22 06:37:00,
2013-05-22 02:42:00,57.6,43.7,30.18,West,278,8.0,17.0,60,0.00,,,0.00,meteohub,2013-05-22 06:42:00,
2013-05-22 02:47:00,57.6,44.2,30.21,West,276,11.0,21.0,61,0.00,,,0.00,meteohub,2013-05-22 06:47:00,
2013-05-22 02:53:00,57.6,44.6,30.21,NW,320,10.0,21.0,62,0.00,,,0.00,meteohub,2013-05-22 06:53:00,
2013-05-22 02:58:00,57.6,44.6,30.21,WNW,297,12.0,21.0,62,0.00,,,0.00,meteohub,2013-05-22 06:58:00,
2013-05-22 03:03:00,57.4,44.4,30.21,NW,310,13.0,21.0,62,0.00,,,0.00,meteohub,2013-05-22 07:03:00,
2013-05-22 03:08:00,57.4,45.0,30.21,NW,304,13.0,17.0,63,0.00,,,0.00,meteohub,2013-05-22 07:08:00,
2013-05-22 03:14:00,57.4,44.4,30.21,NW,304,12.0,17.0,62,0.00,,,0.00,meteohub,2013-05-22 07:14:00,
2013-05-22 03:19:00,57.4,44.4,30.21,WNW,302,8.0,17.0,62,0.00,,,0.00,meteohub,2013-05-22 07:19:00,
2013-05-22 03:24:00,57.4,45.0,30.21,NNW,338,5.0,17.0,63,0.00,,,0.00,meteohub,2013-05-22 07:24:00,
2013-05-22 03:29:00,57.6,44.6,30.18,NNW,338,6.0,13.0,62,0.00,,,0.00,meteohub,2013-05-22 07:29:00,
2013-05-22 03:35:00,57.6,44.6,30.18,North,357,8.0,13.0,62,0.00,,,0.00,meteohub,2013-05-22 07:35:00,
2013-05-22 03:40:00,57.6,44.6,30.18,North,353,6.0,9.0,62,0.00,,,0.00,meteohub,2013-05-22 07:40:00,
2013-05-22 03:45:00,57.6,44.6,30.18,North,350,4.0,10.0,62,0.00,,,0.00,meteohub,2013-05-22 07:45:00,
2013-05-22 03:50:00,57.4,44.4,30.18,North,353,6.0,10.0,62,0.00,,,0.00,meteohub,2013-05-22 07:50:00,
2013-05-22 03:56:00,57.4,44.4,30.18,NW,321,8.0,8.0,62,0.00,,,0.00,meteohub,2013-05-22 07:56:00,
2013-05-22 04:01:00,57.4,44.1,30.18,NW,318,3.0,8.0,61,0.00,,,0.00,meteohub,2013-05-22 08:01:00,
2013-05-22 04:06:00,57.4,44.4,30.18,NW,308,3.0,8.0,62,0.00,,,0.00,meteohub,2013-05-22 08:06:00,
2013-05-22 04:11:00,57.4,44.1,30.18,WNW,303,3.0,8.0,61,0.00,,,0.00,meteohub,2013-05-22 08:11:00,
2013-05-22 04:17:00,57.4,44.1,30.21,NW,310,6.0,8.0,61,0.00,,,0.00,meteohub,2013-05-22 08:17:00,
2013-05-22 04:22:00,57.4,44.1,30.21,NNW,342,8.0,8.0,61,0.00,,,0.00,meteohub,2013-05-22 08:22:00,
2013-05-22 04:27:00,57.4,44.1,30.21,North,357,5.0,9.0,61,0.00,,,0.00,meteohub,2013-05-22 08:27:00,
2013-05-22 04:32:00,57.4,44.1,30.21,NE,43,5.0,9.0,61,0.00,,,0.00,meteohub,2013-05-22 08:32:00,
2013-05-22 04:37:00,57.2,43.0,30.21,North,10,6.0,9.0,59,0.00,,,0.00,meteohub,2013-05-22 08:37:00,
2013-05-22 04:42:00,57.2,43.5,30.21,North,357,8.0,8.0,60,0.00,,,0.00,meteohub,2013-05-22 08:42:00,
2013-05-22 04:47:00,57.2,43.5,30.21,North,5,5.0,8.0,60,0.00,,,0.00,meteohub,2013-05-22 08:47:00,
2013-05-22 04:52:00,57.2,43.5,30.21,NNE,12,4.0,8.0,60,0.00,,,0.00,meteohub,2013-05-22 08:52:00,
2013-05-22 04:58:00,57.4,43.7,30.21,North,9,2.0,8.0,60,0.00,,,0.00,meteohub,2013-05-22 08:58:00,
2013-05-22 05:03:00,57.6,43.7,30.21,North,9,2.0,8.0,60,0.00,,,0.00,meteohub,2013-05-22 09:03:00,
2013-05-22 05:09:00,57.6,44.2,30.21,North,9,3.0,8.0,61,0.00,,,0.00,meteohub,2013-05-22 09:09:00,
2013-05-22 05:14:00,57.7,43.9,30.21,North,7,0.0,8.0,60,0.00,,,0.00,meteohub,2013-05-22 09:14:00,
2013-05-22 05:20:00,57.7,43.9,30.21,NNE,17,3.0,5.0,60,0.00,,,0.00,meteohub,2013-05-22 09:20:00,
2013-05-22 05:25:00,57.9,44.6,30.21,North,6,3.0,5.0,61,0.00,,,0.00,meteohub,2013-05-22 09:25:00,
2013-05-22 05:30:00,57.9,44.6,30.24,North,6,0.0,5.0,61,0.00,,,0.00,meteohub,2013-05-22 09:30:00,
2013-05-22 05:36:00,57.9,44.6,30.24,North,6,0.0,5.0,61,0.00,,,0.00,meteohub,2013-05-22 09:36:00,
2013-05-22 05:41:00,58.1,44.8,30.24,North,6,3.0,4.0,61,0.00,,,0.00,meteohub,2013-05-22 09:41:00,
2013-05-22 05:46:00,57.9,44.1,30.24,SSW,210,3.0,4.0,60,0.00,,,0.00,meteohub,2013-05-22 09:46:00,
2013-05-22 05:51:00,58.1,44.8,30.24,SW,233,8.0,8.0,61,0.00,,,0.00,meteohub,2013-05-22 09:51:00,
2013-05-22 05:57:00,57.9,44.6,30.24,SSW,207,5.0,9.0,61,0.00,,,0.00,meteohub,2013-05-22 09:57:00,
2013-05-22 06:02:00,57.9,44.6,30.24,WSW,238,8.0,9.0,61,0.00,,,0.00,meteohub,2013-05-22 10:02:00,
2013-05-22 06:07:00,57.9,44.6,30.24,SW,220,6.0,9.0,61,0.00,,,0.00,meteohub,2013-05-22 10:07:00,
2013-05-22 06:12:00,58.1,44.8,30.24,SW,229,4.0,8.0,61,0.00,,,0.00,meteohub,2013-05-22 10:12:00,
2013-05-22 06:18:00,58.1,44.8,30.24,South,173,2.0,8.0,61,0.00,,,0.00,meteohub,2013-05-22 10:18:00,
2013-05-22 06:23:00,58.1,44.8,30.24,South,191,0.0,8.0,61,0.00,,,0.00,meteohub,2013-05-22 10:23:00,
2013-05-22 06:28:00,58.3,45.3,30.24,SSW,209,3.0,8.0,62,0.00,,,0.00,meteohub,2013-05-22 10:28:00,
2013-05-22 06:34:00,58.3,45.3,30.15,SSW,207,3.0,6.0,62,0.00,,,0.00,meteohub,2013-05-22 10:34:00,
2013-05-22 06:39:00,58.5,45.5,30.15,SSW,205,0.0,6.0,62,0.00,,,0.00,meteohub,2013-05-22 10:39:00,
2013-05-22 06:44:00,58.6,45.7,30.12,SSW,205,0.0,6.0,62,0.00,,,0.00,meteohub,2013-05-22 10:44:00,
2013-05-22 06:50:00,58.8,45.9,30.12,SSW,205,0.0,6.0,62,0.00,,,0.00,meteohub,2013-05-22 10:50:00,
2013-05-22 06:55:00,58.8,45.9,30.12,SSW,205,0.0,2.0,62,0.00,,,0.00,meteohub,2013-05-22 10:55:00,
2013-05-22 07:00:00,58.8,45.3,30.12,East,88,3.0,3.0,61,0.00,,,0.00,meteohub,2013-05-22 11:00:00,
2013-05-22 07:06:00,59.0,45.5,30.12,ESE,108,6.0,6.0,61,0.00,,,0.00,meteohub,2013-05-22 11:06:00,
2013-05-22 07:11:00,59.2,45.3,30.12,ESE,110,4.0,4.0,60,0.00,,,0.00,meteohub,2013-05-22 11:11:00,
2013-05-22 07:17:00,59.2,44.8,30.15,ESE,120,8.0,8.0,59,0.00,,,0.00,meteohub,2013-05-22 11:17:00,
2013-05-22 07:22:00,59.2,44.8,30.15,East,101,8.0,8.0,59,0.00,,,0.00,meteohub,2013-05-22 11:22:00,
2013-05-22 07:27:00,59.4,45.5,30.15,ESE,108,6.0,8.0,60,0.00,,,0.00,meteohub,2013-05-22 11:27:00,
2013-05-22 07:32:00,59.5,45.7,30.12,ESE,106,8.0,9.0,60,0.00,,,0.00,meteohub,2013-05-22 11:32:00,
2013-05-22 07:38:00,59.7,45.3,30.12,ESE,108,8.0,9.0,59,0.00,,,0.00,meteohub,2013-05-22 11:38:00,
2013-05-22 07:44:00,59.9,45.1,30.12,ESE,108,5.0,9.0,58,0.00,,,0.00,meteohub,2013-05-22 11:44:00,
2013-05-22 07:49:00,59.7,44.1,30.15,East,96,9.0,11.0,56,0.00,,,0.00,meteohub,2013-05-22 11:49:00,
2013-05-22 07:54:00,59.9,44.6,30.15,ESE,113,9.0,11.0,57,0.00,,,0.00,meteohub,2013-05-22 11:54:00,
2013-05-22 08:00:00,59.7,43.0,30.15,ESE,113,8.0,11.0,54,0.00,,,0.00,meteohub,2013-05-22 12:00:00,
2013-05-22 08:05:00,59.7,43.0,30.15,SE,139,5.0,11.0,54,0.00,,,0.00,meteohub,2013-05-22 12:05:00,
2013-05-22 08:11:00,59.5,41.9,30.15,ESE,122,8.0,11.0,52,0.00,,,0.00,meteohub,2013-05-22 12:11:00,
2013-05-22 08:16:00,59.5,41.9,30.12,East,98,7.0,11.0,52,0.00,,,0.00,meteohub,2013-05-22 12:16:00,
2013-05-22 08:21:00,59.7,42.1,30.12,East,95,8.0,11.0,52,0.00,,,0.00,meteohub,2013-05-22 12:21:00,
2013-05-22 08:26:00,59.5,41.9,30.12,ESE,119,11.0,11.0,52,0.00,,,0.00,meteohub,2013-05-22 12:26:00,
2013-05-22 08:32:00,59.5,42.4,30.12,SSE,147,8.0,11.0,53,0.00,,,0.00,meteohub,2013-05-22 12:32:00,
2013-05-22 08:37:00,60.1,43.0,30.12,SE,137,8.0,11.0,53,0.00,,,0.00,meteohub,2013-05-22 12:37:00,
2013-05-22 08:42:00,60.1,43.0,30.12,ESE,121,5.0,11.0,53,0.00,,,0.00,meteohub,2013-05-22 12:42:00,
2013-05-22 08:47:00,60.3,43.0,30.12,SE,136,6.0,11.0,53,0.00,,,0.00,meteohub,2013-05-22 12:47:00,
2013-05-22 08:52:00,60.6,43.9,30.12,SSE,157,10.0,11.0,54,0.00,,,0.00,meteohub,2013-05-22 12:52:00,
2013-05-22 08:57:00,60.6,43.3,30.12,SE,130,5.0,11.0,53,0.00,,,0.00,meteohub,2013-05-22 12:57:00,
2013-05-22 09:02:00,60.6,43.3,30.12,SSE,151,10.0,11.0,53,0.00,,,0.00,meteohub,2013-05-22 13:02:00,
2013-05-22 09:07:00,60.6,43.0,30.12,SE,128,8.0,11.0,52,0.00,,,0.00,meteohub,2013-05-22 13:07:00,
2013-05-22 09:12:00,60.8,43.5,30.12,SE,141,11.0,14.0,53,0.00,,,0.00,meteohub,2013-05-22 13:12:00,
2013-05-22 09:17:00,60.8,44.6,30.15,SSE,150,13.0,14.0,55,0.00,,,0.00,meteohub,2013-05-22 13:17:00,
2013-05-22 09:22:00,60.6,44.4,30.15,ESE,113,10.0,14.0,55,0.00,,,0.00,meteohub,2013-05-22 13:22:00,
2013-05-22 09:27:00,60.8,45.0,30.15,SE,132,12.0,14.0,56,0.00,,,0.00,meteohub,2013-05-22 13:27:00,
2013-05-22 09:32:00,61.0,46.0,30.12,SSE,152,11.0,14.0,58,0.00,,,0.00,meteohub,2013-05-22 13:32:00,
2013-05-22 09:37:00,61.2,46.8,30.12,SE,141,11.0,14.0,59,0.00,,,0.00,meteohub,2013-05-22 13:37:00,
2013-05-22 09:42:00,61.3,47.3,30.12,SSE,147,9.0,14.0,60,0.00,,,0.00,meteohub,2013-05-22 13:42:00,
2013-05-22 09:47:00,61.7,48.2,30.12,SSE,168,11.0,14.0,61,0.00,,,0.00,meteohub,2013-05-22 13:47:00,
2013-05-22 09:52:00,61.9,48.2,30.12,South,171,12.0,14.0,61,0.00,,,0.00,meteohub,2013-05-22 13:52:00,
2013-05-22 09:57:00,61.9,47.8,30.12,ESE,123,8.0,13.0,60,0.00,,,0.00,meteohub,2013-05-22 13:57:00,
2013-05-22 10:02:00,61.9,47.8,30.12,SSE,162,10.0,13.0,60,0.00,,,0.00,meteohub,2013-05-22 14:02:00,
2013-05-22 10:07:00,61.9,47.8,30.12,SSE,149,9.0,13.0,60,0.00,,,0.00,meteohub,2013-05-22 14:07:00,
2013-05-22 10:13:00,61.7,47.3,30.12,SE,144,9.0,13.0,59,0.00,,,0.00,meteohub,2013-05-22 14:13:00,
2013-05-22 10:18:00,61.9,47.8,30.12,SSE,158,13.0,13.0,60,0.00,,,0.00,meteohub,2013-05-22 14:18:00,
2013-05-22 10:23:00,62.1,48.0,30.12,SE,138,8.0,13.0,60,0.00,,,0.00,meteohub,2013-05-22 14:23:00,
2013-05-22 10:29:00,61.9,47.8,30.12,SSE,148,10.0,13.0,60,0.00,,,0.00,meteohub,2013-05-22 14:29:00,
2013-05-22 10:34:00,62.1,48.0,30.12,South,172,11.0,13.0,60,0.00,,,0.00,meteohub,2013-05-22 14:34:00,
2013-05-22 10:39:00,62.2,48.2,30.12,South,178,11.0,14.0,60,0.00,,,0.00,meteohub,2013-05-22 14:39:00,
2013-05-22 10:45:00,62.2,48.2,30.15,South,169,11.0,14.0,60,0.00,,,0.00,meteohub,2013-05-22 14:45:00,
2013-05-22 10:50:00,62.6,48.6,30.15,South,180,10.0,14.0,60,0.00,,,0.00,meteohub,2013-05-22 14:50:00,
2013-05-22 10:55:00,63.0,48.9,30.15,South,182,12.0,15.0,60,0.00,,,0.00,meteohub,2013-05-22 14:55:00,
2013-05-22 11:01:00,63.1,49.5,30.15,SSW,192,9.0,15.0,61,0.00,,,0.00,meteohub,2013-05-22 15:01:00,
2013-05-22 11:06:00,63.7,50.0,30.15,SSE,168,8.0,15.0,61,0.00,,,0.00,meteohub,2013-05-22 15:06:00,
2013-05-22 11:11:00,64.0,50.4,30.15,SSW,203,11.0,12.0,61,0.00,,,0.00,meteohub,2013-05-22 15:11:00,
2013-05-22 11:17:00,64.2,50.5,30.15,SSW,204,10.0,12.0,61,0.00,,,0.00,meteohub,2013-05-22 15:17:00,
2013-05-22 11:22:00,64.4,50.2,30.15,South,188,8.0,12.0,60,0.00,,,0.00,meteohub,2013-05-22 15:22:00,
2013-05-22 11:27:00,64.9,51.1,30.15,SSE,163,8.0,12.0,61,0.00,,,0.00,meteohub,2013-05-22 15:27:00,
2013-05-22 11:32:00,65.1,50.4,30.15,SSE,148,8.0,13.0,59,0.00,,,0.00,meteohub,2013-05-22 15:32:00,
2013-05-22 11:37:00,64.9,48.4,30.15,SE,137,8.0,13.0,55,0.00,,,0.00,meteohub,2013-05-22 15:37:00,
2013-05-22 11:42:00,65.3,48.7,30.15,SSE,158,8.0,13.0,55,0.00,,,0.00,meteohub,2013-05-22 15:42:00,
2013-05-22 11:47:00,65.5,47.8,30.15,SE,141,5.0,11.0,53,0.00,,,0.00,meteohub,2013-05-22 15:47:00,
2013-05-22 11:53:00,66.0,47.8,30.15,ESE,121,8.0,11.0,52,0.00,,,0.00,meteohub,2013-05-22 15:53:00,
2013-05-22 11:58:00,66.0,45.7,30.15,SSE,149,11.0,11.0,48,0.00,,,0.00,meteohub,2013-05-22 15:58:00,
2013-05-22 12:03:00,66.7,47.5,30.15,South,176,8.0,11.0,50,0.00,,,0.00,meteohub,2013-05-22 16:03:00,
2013-05-22 12:09:00,67.1,47.3,30.15,SE,142,11.0,11.0,49,0.00,,,0.00,meteohub,2013-05-22 16:09:00,
2013-05-22 12:14:00,67.1,45.0,30.15,South,173,7.0,11.0,45,0.00,,,0.00,meteohub,2013-05-22 16:14:00,
2013-05-22 12:19:00,67.3,44.6,30.12,SSE,147,9.0,11.0,44,0.00,,,0.00,meteohub,2013-05-22 16:19:00,
2013-05-22 12:25:00,67.1,42.6,30.12,SE,127,10.0,11.0,41,0.00,,,0.00,meteohub,2013-05-22 16:25:00,
2013-05-22 12:30:00,67.8,44.4,30.09,SSE,149,8.0,11.0,43,0.00,,,0.00,meteohub,2013-05-22 16:30:00,
2013-05-22 12:35:00,68.2,43.5,30.09,SE,139,10.0,11.0,41,0.00,,,0.00,meteohub,2013-05-22 16:35:00,
2013-05-22 12:41:00,68.0,42.1,30.09,South,169,11.0,11.0,39,0.00,,,0.00,meteohub,2013-05-22 16:41:00,
2013-05-22 12:46:00,67.6,41.2,30.06,SSE,156,11.0,13.0,38,0.00,,,0.00,meteohub,2013-05-22 16:46:00,
2013-05-22 12:51:00,67.6,41.2,30.06,South,174,11.0,13.0,38,0.00,,,0.00,meteohub,2013-05-22 16:51:00,
2013-05-22 12:57:00,67.6,41.2,30.06,SSE,163,11.0,13.0,38,0.00,,,0.00,meteohub,2013-05-22 16:57:00,
2013-05-22 13:02:00,67.6,40.5,30.06,SSE,166,11.0,13.0,37,0.00,,,0.00,meteohub,2013-05-22 17:02:00,
2013-05-22 13:07:00,67.5,39.6,30.06,SSE,166,8.0,13.0,36,0.00,,,0.00,meteohub,2013-05-22 17:07:00,
2013-05-22 13:12:00,67.5,40.3,30.06,South,182,5.0,12.0,37,0.00,,,0.00,meteohub,2013-05-22 17:12:00,
2013-05-22 13:17:00,67.6,40.5,30.06,SSE,156,6.0,12.0,37,0.00,,,0.00,meteohub,2013-05-22 17:17:00,
2013-05-22 13:22:00,68.0,40.8,30.06,SSE,151,6.0,9.0,37,0.00,,,0.00,meteohub,2013-05-22 17:22:00,
2013-05-22 13:28:00,68.0,40.1,30.06,South,170,8.0,9.0,36,0.00,,,0.00,meteohub,2013-05-22 17:28:00,
2013-05-22 13:33:00,68.0,40.8,30.06,SE,141,6.0,9.0,37,0.00,,,0.00,meteohub,2013-05-22 17:33:00,
2013-05-22 13:38:00,68.0,40.8,30.06,SSE,159,8.0,9.0,37,0.00,,,0.00,meteohub,2013-05-22 17:38:00,
2013-05-22 13:44:00,68.2,42.3,30.06,SSE,163,8.0,11.0,39,0.00,,,0.00,meteohub,2013-05-22 17:44:00,
2013-05-22 13:49:00,68.0,42.8,30.06,SSE,147,9.0,11.0,40,0.00,,,0.00,meteohub,2013-05-22 17:49:00,
2013-05-22 13:54:00,68.2,43.5,30.06,SSE,158,8.0,11.0,41,0.00,,,0.00,meteohub,2013-05-22 17:54:00,
2013-05-22 13:59:00,68.2,43.0,30.06,SSE,152,8.0,11.0,40,0.00,,,0.00,meteohub,2013-05-22 17:59:00,
2013-05-22 14:05:00,68.2,43.5,30.06,SE,130,8.0,11.0,41,0.00,,,0.00,meteohub,2013-05-22 18:05:00,
2013-05-22 14:10:00,68.0,42.8,30.06,SE,139,8.0,11.0,40,0.00,,,0.00,meteohub,2013-05-22 18:10:00,
2013-05-22 14:16:00,67.6,43.7,30.06,SE,145,6.0,11.0,42,0.00,,,0.00,meteohub,2013-05-22 18:16:00,
2013-05-22 14:21:00,67.3,44.1,30.06,SSE,149,6.0,11.0,43,0.00,,,0.00,meteohub,2013-05-22 18:21:00,
2013-05-22 14:26:00,67.3,44.1,30.06,South,173,6.0,10.0,43,0.00,,,0.00,meteohub,2013-05-22 18:26:00,
2013-05-22 14:31:00,67.3,44.1,30.06,SSE,150,8.0,10.0,43,0.00,,,0.00,meteohub,2013-05-22 18:31:00,
2013-05-22 14:37:00,67.1,43.9,30.06,South,169,8.0,10.0,43,0.00,,,0.00,meteohub,2013-05-22 18:37:00,
2013-05-22 14:42:00,66.7,43.5,30.06,South,182,8.0,9.0,43,0.00,,,0.00,meteohub,2013-05-22 18:42:00,
2013-05-22 14:47:00,66.7,44.1,30.06,SE,143,5.0,9.0,44,0.00,,,0.00,meteohub,2013-05-22 18:47:00,
2013-05-22 14:52:00,66.6,44.1,30.06,ESE,105,4.0,9.0,44,0.00,,,0.00,meteohub,2013-05-22 18:52:00,
2013-05-22 14:58:00,66.4,43.9,30.06,ESE,116,4.0,8.0,44,0.00,,,0.00,meteohub,2013-05-22 18:58:00,
2013-05-22 15:03:00,66.0,43.5,30.06,East,89,4.0,8.0,44,0.00,,,0.00,meteohub,2013-05-22 19:03:00,
2013-05-22 15:08:00,65.7,43.7,30.06,ENE,72,5.0,6.0,45,0.00,,,0.00,meteohub,2013-05-22 19:08:00,
2013-05-22 15:13:00,65.5,44.2,30.06,ENE,73,6.0,6.0,46,0.00,,,0.00,meteohub,2013-05-22 19:13:00,
2013-05-22 15:18:00,65.3,44.6,30.09,NE,38,5.0,8.0,47,0.00,,,0.00,meteohub,2013-05-22 19:18:00,
2013-05-22 15:24:00,64.9,44.8,30.09,NE,41,9.0,9.0,48,0.00,,,0.00,meteohub,2013-05-22 19:24:00,
2013-05-22 15:29:00,64.2,43.5,30.09,NE,39,9.0,9.0,47,0.00,,,0.00,meteohub,2013-05-22 19:29:00,
2013-05-22 15:34:00,63.1,41.5,30.09,NNE,33,11.0,11.0,45,0.00,,,0.00,meteohub,2013-05-22 19:34:00,
2013-05-22 15:40:00,63.3,42.3,30.09,North,4,10.0,13.0,46,0.00,,,0.00,meteohub,2013-05-22 19:40:00,
2013-05-22 15:45:00,63.3,41.5,30.12,NNE,31,8.0,14.0,45,0.00,,,0.00,meteohub,2013-05-22 19:45:00,
2013-05-22 15:50:00,63.1,40.8,30.12,NNE,27,9.0,14.0,44,0.00,,,0.00,meteohub,2013-05-22 19:50:00,
2013-05-22 15:55:00,62.8,39.9,30.12,North,6,10.0,14.0,43,0.00,,,0.00,meteohub,2013-05-22 19:55:00,
2013-05-22 16:01:00,62.8,40.5,30.12,North,4,9.0,14.0,44,0.00,,,0.00,meteohub,2013-05-22 20:01:00,
2013-05-22 16:06:00,62.8,39.9,30.12,North,8,13.0,14.0,43,0.00,,,0.00,meteohub,2013-05-22 20:06:00,
2013-05-22 16:11:00,62.2,40.1,30.12,NE,41,8.0,13.0,44,0.00,,,0.00,meteohub,2013-05-22 20:11:00,
2013-05-22 16:16:00,62.2,40.6,30.12,NNE,14,11.0,13.0,45,0.00,,,0.00,meteohub,2013-05-22 20:16:00,
2013-05-22 16:22:00,62.1,40.5,30.12,North,0,9.0,13.0,45,0.00,,,0.00,meteohub,2013-05-22 20:22:00,
2013-05-22 16:27:00,61.9,40.3,30.12,North,353,10.0,13.0,45,0.00,,,0.00,meteohub,2013-05-22 20:27:00,
2013-05-22 16:32:00,61.9,40.8,30.12,NNE,18,8.0,13.0,46,0.00,,,0.00,meteohub,2013-05-22 20:32:00,
2013-05-22 16:37:00,62.1,41.0,30.12,NNE,24,9.0,13.0,46,0.00,,,0.00,meteohub,2013-05-22 20:37:00,
2013-05-22 16:42:00,61.9,40.8,30.12,NNE,15,11.0,13.0,46,0.00,,,0.00,meteohub,2013-05-22 20:42:00,
2013-05-22 16:47:00,61.9,41.4,30.12,NNW,337,6.0,13.0,47,0.00,,,0.00,meteohub,2013-05-22 20:47:00,
2013-05-22 16:53:00,61.9,40.8,30.12,NNE,18,9.0,13.0,46,0.00,,,0.00,meteohub,2013-05-22 20:53:00,
2013-05-22 16:58:00,61.7,41.2,30.12,NNE,15,10.0,12.0,47,0.00,,,0.00,meteohub,2013-05-22 20:58:00,
2013-05-22 17:04:00,61.5,41.2,30.12,North,4,12.0,12.0,47,0.00,,,0.00,meteohub,2013-05-22 21:04:00,
2013-05-22 17:09:00,61.3,41.5,30.12,NE,43,8.0,13.0,48,0.00,,,0.00,meteohub,2013-05-22 21:09:00,
2013-05-22 17:14:00,61.3,41.5,30.12,North,357,11.0,13.0,48,0.00,,,0.00,meteohub,2013-05-22 21:14:00,
2013-05-22 17:20:00,61.3,42.6,30.12,North,357,9.0,13.0,50,0.00,,,0.00,meteohub,2013-05-22 21:20:00,
2013-05-22 17:25:00,61.2,42.4,30.12,NNE,30,6.0,13.0,50,0.00,,,0.00,meteohub,2013-05-22 21:25:00,
2013-05-22 17:30:00,61.2,43.0,30.09,NE,34,11.0,14.0,51,0.00,,,0.00,meteohub,2013-05-22 21:30:00,
2013-05-22 17:36:00,61.0,43.2,30.09,North,0,12.0,14.0,52,0.00,,,0.00,meteohub,2013-05-22 21:36:00,
2013-05-22 17:41:00,61.0,44.2,30.09,NNE,29,11.0,13.0,54,0.00,,,0.00,meteohub,2013-05-22 21:41:00,
2013-05-22 17:46:00,61.0,44.8,30.09,NNE,22,13.0,13.0,55,0.00,,,0.00,meteohub,2013-05-22 21:46:00,
2013-05-22 17:51:00,61.0,46.0,30.09,NE,38,10.0,13.0,58,0.00,,,0.00,meteohub,2013-05-22 21:51:00,
2013-05-22 17:56:00,61.2,46.8,30.09,NNE,29,11.0,15.0,59,0.00,,,0.00,meteohub,2013-05-22 21:56:00,
2013-05-22 18:02:00,61.2,47.1,30.09,North,9,10.0,15.0,60,0.00,,,0.00,meteohub,2013-05-22 22:02:00,
2013-05-22 18:07:00,61.2,47.1,30.09,North,6,8.0,15.0,60,0.00,,,0.00,meteohub,2013-05-22 22:07:00,
2013-05-22 18:12:00,61.3,47.8,30.09,North,2,10.0,13.0,61,0.00,,,0.00,meteohub,2013-05-22 22:12:00,
2013-05-22 18:17:00,61.5,48.7,30.09,NE,39,9.0,13.0,63,0.00,,,0.00,meteohub,2013-05-22 22:17:00,
2013-05-22 18:22:00,61.7,49.5,30.09,NE,34,6.0,11.0,64,0.00,,,0.00,meteohub,2013-05-22 22:22:00,
2013-05-22 18:27:00,61.9,50.0,30.09,NE,38,8.0,11.0,65,0.00,,,0.00,meteohub,2013-05-22 22:27:00,
2013-05-22 18:32:00,62.2,51.1,30.09,NNE,26,9.0,11.0,67,0.00,,,0.00,meteohub,2013-05-22 22:32:00,
2013-05-22 18:37:00,62.4,52.2,30.09,NE,38,6.0,12.0,69,0.00,,,0.00,meteohub,2013-05-22 22:37:00,
2013-05-22 18:42:00,62.6,52.3,30.09,ENE,62,8.0,12.0,69,0.00,,,0.00,meteohub,2013-05-22 22:42:00,
2013-05-22 18:47:00,62.6,52.0,30.09,East,83,8.0,12.0,68,0.00,,,0.00,meteohub,2013-05-22 22:47:00,
2013-05-22 18:52:00,62.6,52.3,30.09,East,88,6.0,10.0,69,0.00,,,0.00,meteohub,2013-05-22 22:52:00,
2013-05-22 18:57:00,62.8,52.5,30.09,East,97,8.0,10.0,69,0.00,,,0.00,meteohub,2013-05-22 22:57:00,
2013-05-22 19:02:00,62.8,52.5,30.09,ESE,119,4.0,10.0,69,0.00,,,0.00,meteohub,2013-05-22 23:02:00,
2013-05-22 19:07:00,62.8,52.9,30.09,ESE,112,8.0,9.0,70,0.00,,,0.00,meteohub,2013-05-22 23:07:00,
2013-05-22 19:12:00,62.8,52.9,30.09,ESE,109,4.0,9.0,70,0.00,,,0.00,meteohub,2013-05-22 23:12:00,
2013-05-22 19:17:00,63.0,53.4,30.09,ESE,107,6.0,9.0,71,0.00,,,0.00,meteohub,2013-05-22 23:17:00,
2013-05-22 19:22:00,63.0,53.8,30.09,SE,124,6.0,9.0,72,0.00,,,0.00,meteohub,2013-05-22 23:22:00,
2013-05-22 19:27:00,63.0,53.4,30.09,ESE,118,9.0,10.0,71,0.00,,,0.00,meteohub,2013-05-22 23:27:00,
2013-05-22 19:32:00,63.1,54.0,30.09,ESE,120,9.0,10.0,72,0.00,,,0.00,meteohub,2013-05-22 23:32:00,
2013-05-22 19:37:00,63.1,54.7,30.09,ESE,117,9.0,10.0,74,0.00,,,0.00,meteohub,2013-05-22 23:37:00,
2013-05-22 19:42:00,63.1,55.0,30.09,SE,131,11.0,11.0,75,0.00,,,0.00,meteohub,2013-05-22 23:42:00,
2013-05-22 19:47:00,63.1,55.0,30.09,ESE,121,8.0,12.0,75,0.00,,,0.00,meteohub,2013-05-22 23:47:00,
2013-05-22 19:53:00,63.3,55.6,30.09,ESE,115,11.0,12.0,76,0.00,,,0.00,meteohub,2013-05-22 23:53:00,
2013-05-22 19:58:00,63.3,55.6,30.09,SE,125,8.0,13.0,76,0.00,,,0.00,meteohub,2013-05-22 23:58:00,
2013-05-22 20:04:00,63.1,55.0,30.09,SE,127,11.0,13.0,75,0.00,,,0.00,meteohub,2013-05-23 00:04:00,
2013-05-22 20:09:00,63.1,54.3,30.09,SE,137,8.0,11.0,73,0.00,,,0.00,meteohub,2013-05-23 00:09:00,
2013-05-22 20:14:00,63.3,55.6,30.09,SSE,149,6.0,11.0,76,0.00,,,0.00,meteohub,2013-05-23 00:14:00,
2013-05-22 20:19:00,63.3,54.9,30.09,SE,124,8.0,11.0,74,0.00,,,0.00,meteohub,2013-05-23 00:19:00,
2013-05-22 20:25:00,63.7,56.3,30.09,ESE,111,8.0,11.0,77,0.00,,,0.00,meteohub,2013-05-23 00:25:00,
2013-05-22 20:30:00,63.5,56.1,30.09,ESE,117,8.0,13.0,77,0.00,,,0.00,meteohub,2013-05-23 00:30:00,
2013-05-22 20:35:00,63.5,55.4,30.09,SSE,152,6.0,13.0,75,0.00,,,0.00,meteohub,2013-05-23 00:35:00,
2013-05-22 20:40:00,63.5,55.8,30.09,ESE,118,9.0,12.0,76,0.00,,,0.00,meteohub,2013-05-23 00:40:00,
2013-05-22 20:46:00,63.7,56.3,30.12,SSE,167,9.0,15.0,77,0.00,,,0.00,meteohub,2013-05-23 00:46:00,
2013-05-22 20:51:00,63.7,56.7,30.12,SE,135,8.0,15.0,78,0.00,,,0.00,meteohub,2013-05-23 00:51:00,
2013-05-22 20:56:00,63.7,57.0,30.12,SSE,163,9.0,15.0,79,0.00,,,0.00,meteohub,2013-05-23 00:56:00,
2013-05-22 21:01:00,63.7,57.0,30.12,SSE,153,10.0,15.0,79,0.00,,,0.00,meteohub,2013-05-23 01:01:00,
2013-05-22 21:07:00,63.9,57.6,30.12,SE,146,11.0,15.0,80,0.00,,,0.00,meteohub,2013-05-23 01:07:00,
2013-05-22 21:12:00,63.9,57.6,30.12,SE,145,8.0,14.0,80,0.00,,,0.00,meteohub,2013-05-23 01:12:00,
2013-05-22 21:17:00,63.9,57.6,30.12,SSE,147,15.0,15.0,80,0.00,,,0.00,meteohub,2013-05-23 01:17:00,
2013-05-22 21:22:00,63.9,57.6,30.12,SSE,150,8.0,14.0,80,0.00,,,0.00,meteohub,2013-05-23 01:22:00,
2013-05-22 21:27:00,64.0,57.7,30.12,ESE,121,9.0,15.0,80,0.00,,,0.00,meteohub,2013-05-23 01:27:00,
2013-05-22 21:32:00,64.2,58.3,30.12,SSE,151,14.0,15.0,81,0.00,,,0.00,meteohub,2013-05-23 01:32:00,
2013-05-22 21:37:00,64.0,57.7,30.12,SSE,164,11.0,15.0,80,0.00,,,0.00,meteohub,2013-05-23 01:37:00,
2013-05-22 21:42:00,64.0,58.1,30.12,South,171,13.0,15.0,81,0.00,,,0.00,meteohub,2013-05-23 01:42:00,
2013-05-22 21:47:00,64.2,58.3,30.12,SSE,149,13.0,15.0,81,0.00,,,0.00,meteohub,2013-05-23 01:47:00,
2013-05-22 21:52:00,64.2,58.3,30.12,SE,130,11.0,15.0,81,0.00,,,0.00,meteohub,2013-05-23 01:52:00,
2013-05-22 21:58:00,64.2,58.3,30.12,SSE,166,11.0,14.0,81,0.00,,,0.00,meteohub,2013-05-23 01:58:00,
2013-05-22 22:03:00,64.2,58.3,30.12,SSE,149,10.0,14.0,81,0.00,,,0.00,meteohub,2013-05-23 02:03:00,
2013-05-22 22:09:00,64.2,58.6,30.12,South,186,11.0,15.0,82,0.00,,,0.00,meteohub,2013-05-23 02:09:00,
2013-05-22 22:14:00,64.4,58.5,30.12,SSE,148,11.0,15.0,81,0.00,,,0.00,meteohub,2013-05-23 02:14:00,
2013-05-22 22:19:00,64.4,58.5,30.12,South,174,11.0,13.0,81,0.00,,,0.00,meteohub,2013-05-23 02:19:00,
2013-05-22 22:24:00,64.2,58.3,30.12,South,179,11.0,13.0,81,0.00,,,0.00,meteohub,2013-05-23 02:24:00,
2013-05-22 22:30:00,64.4,58.5,30.15,SE,145,8.0,13.0,81,0.00,,,0.00,meteohub,2013-05-23 02:30:00,
2013-05-22 22:35:00,64.2,58.3,30.15,SE,133,8.0,13.0,81,0.00,,,0.00,meteohub,2013-05-23 02:35:00,
2013-05-22 22:40:00,64.4,58.5,30.15,South,169,11.0,13.0,81,0.00,,,0.00,meteohub,2013-05-23 02:40:00,
2013-05-22 22:45:00,64.4,58.5,30.15,SSE,160,10.0,13.0,81,0.00,,,0.00,meteohub,2013-05-23 02:45:00,
2013-05-22 22:51:00,64.6,58.6,30.15,SSE,153,11.0,13.0,81,0.00,,,0.00,meteohub,2013-05-23 02:51:00,
2013-05-22 22:56:00,64.8,58.8,30.15,SSE,159,11.0,13.0,81,0.00,,,0.00,meteohub,2013-05-23 02:56:00,
2013-05-22 23:01:00,64.9,59.0,30.15,SSE,165,11.0,13.0,81,0.00,,,0.00,meteohub,2013-05-23 03:01:00,
2013-05-22 23:07:00,64.9,59.0,30.15,SSE,158,13.0,13.0,81,0.00,,,0.00,meteohub,2013-05-23 03:07:00,
2013-05-22 23:12:00,65.1,59.2,30.15,South,175,11.0,15.0,81,0.00,,,0.00,meteohub,2013-05-23 03:12:00,
2013-05-22 23:17:00,65.1,59.2,30.15,South,173,13.0,15.0,81,0.00,,,0.00,meteohub,2013-05-23 03:17:00,
2013-05-22 23:22:00,65.3,59.4,30.15,ESE,113,11.0,16.0,81,0.00,,,0.00,meteohub,2013-05-23 03:22:00,
2013-05-22 23:27:00,65.5,59.5,30.15,SSE,159,13.0,15.0,81,0.00,,,0.00,meteohub,2013-05-23 03:27:00,
2013-05-22 23:32:00,65.5,59.5,30.15,SSE,163,13.0,15.0,81,0.00,,,0.00,meteohub,2013-05-23 03:32:00,
2013-05-22 23:37:00,65.5,59.5,30.15,South,170,15.0,15.0,81,0.00,,,0.00,meteohub,2013-05-23 03:37:00,
2013-05-22 23:42:00,65.5,59.5,30.15,SSE,162,13.0,21.0,81,0.00,,,0.00,meteohub,2013-05-23 03:42:00,
2013-05-22 23:47:00,65.5,59.5,30.15,SSE,164,15.0,21.0,81,0.00,,,0.00,meteohub,2013-05-23 03:47:00,
2013-05-22 23:52:00,65.5,59.5,30.15,South,176,15.0,21.0,81,0.00,,,0.00,meteohub,2013-05-23 03:52:00,
2013-05-22 23:57:00,65.3,59.4,30.15,SSE,153,13.0,20.0,81,0.00,,,0.00,meteohub,2013-05-23 03:57:00,